Startpagina
METAR-TAF:

METAR-TAF

Vliegvelden :

Vliegbasis Eindhoven

Eindhoven, Nederland

breedte: 51-27N, lengte: 005-25E, hoogte: 23 m

Actueel weer

Dit bericht is 31 minuten geleden gemaakt, om 17:55 UTC
Wind 7 kt uit het noordoosten
Temperatuur 22°C
Vochtigheid 41%
Druk 1015 hPa
Zicht 10 km of meer

METAR: EHEH 191755Z AUTO 05007KT 9999 NCD 22/08 Q1015 BLU NOSIG

Tijdstip: 20:26 (18:26 UTC)

Verwachting

Dit bericht is 57 minuten geleden gemaakt, om 17:29 UTC
Verwachting geldig van 19 om 18 UTC tot 20 om 24 UTC
Wind 6 kt uit het noordoosten
Zicht 10 km of meer
geen wolken onder 1500 m en geen cumulonimbus

TAF: EHEH 191729Z 1918/2024 05006KT CAVOK

Waarnemingen en weersverwachtingen van meer dan 4000 vliegvelden (METAR en TAF).

De beschikbare stations zijn de gele en rode punten op de kaart.

Ga met uw muis naar het station om de naam te zien.

Klik dan om waarnemingen en weersverwachtingen te zien.

kaart wijzigen: klik op de groene knoppen met een zwart kruis om in te zoomen, op de groene knop met een streepje om uit te zoomen of op de groene pijlen voor aangrenzende kaarten.


METAR-TAF: